sensor_id;sensor_type;location;lat;lon;timestamp;P1;durP1;ratioP1;P2;durP2;ratioP2
15488;SDS011;7846;48.830;9.116;2023-01-25T00:00:16;21.37;;;15.83;;
15488;SDS011;7846;48.830;9.116;2023-01-25T00:02:43;20.20;;;15.40;;
15488;SDS011;7846;48.830;9.116;2023-01-25T00:05:08;21.10;;;15.20;;
15488;SDS011;7846;48.830;9.116;2023-01-25T00:07:34;20.30;;;15.47;;
15488;SDS011;7846;48.830;9.116;2023-01-25T00:09:59;21.47;;;15.67;;
15488;SDS011;7846;48.830;9.116;2023-01-25T00:12:27;20.40;;;15.90;;
15488;SDS011;7846;48.830;9.116;2023-01-25T00:14:52;21.17;;;16.17;;
15488;SDS011;7846;48.830;9.116;2023-01-25T00:17:17;20.40;;;15.47;;
15488;SDS011;7846;48.830;9.116;2023-01-25T00:19:43;21.30;;;16.47;;
15488;SDS011;7846;48.830;9.116;2023-01-25T00:22:08;20.60;;;15.73;;
15488;SDS011;7846;48.830;9.116;2023-01-25T00:24:35;21.83;;;15.97;;
15488;SDS011;7846;48.830;9.116;2023-01-25T00:27:01;19.43;;;15.27;;
15488;SDS011;7846;48.830;9.116;2023-01-25T00:29:26;19.37;;;15.17;;
15488;SDS011;7846;48.830;9.116;2023-01-25T00:34:46;20.47;;;14.30;;
15488;SDS011;7846;48.830;9.116;2023-01-25T00:37:28;18.83;;;14.80;;
15488;SDS011;7846;48.830;9.116;2023-01-25T00:39:59;20.83;;;15.20;;
15488;SDS011;7846;48.830;9.116;2023-01-25T00:45:01;19.60;;;15.37;;
15488;SDS011;7846;48.830;9.116;2023-01-25T00:47:27;19.03;;;14.47;;
15488;SDS011;7846;48.830;9.116;2023-01-25T00:49:53;17.30;;;14.63;;
15488;SDS011;7846;48.830;9.116;2023-01-25T00:52:18;19.67;;;14.80;;
15488;SDS011;7846;48.830;9.116;2023-01-25T00:54:44;17.73;;;14.50;;
15488;SDS011;7846;48.830;9.116;2023-01-25T00:57:10;16.90;;;14.70;;
15488;SDS011;7846;48.830;9.116;2023-01-25T00:59:35;17.80;;;14.27;;
15488;SDS011;7846;48.830;9.116;2023-01-25T01:02:03;18.03;;;14.17;;
15488;SDS011;7846;48.830;9.116;2023-01-25T01:04:29;18.60;;;14.37;;
15488;SDS011;7846;48.830;9.116;2023-01-25T01:06:54;17.70;;;14.17;;
15488;SDS011;7846;48.830;9.116;2023-01-25T01:09:20;17.87;;;14.00;;
15488;SDS011;7846;48.830;9.116;2023-01-25T01:11:46;18.77;;;13.47;;
15488;SDS011;7846;48.830;9.116;2023-01-25T01:14:12;18.83;;;14.33;;
15488;SDS011;7846;48.830;9.116;2023-01-25T01:16:38;19.23;;;14.70;;
15488;SDS011;7846;48.830;9.116;2023-01-25T01:19:04;20.30;;;15.07;;
15488;SDS011;7846;48.830;9.116;2023-01-25T01:21:29;20.33;;;14.87;;
15488;SDS011;7846;48.830;9.116;2023-01-25T01:23:55;19.77;;;15.07;;
15488;SDS011;7846;48.830;9.116;2023-01-25T01:26:21;18.43;;;14.37;;
15488;SDS011;7846;48.830;9.116;2023-01-25T01:28:47;21.57;;;14.57;;
15488;SDS011;7846;48.830;9.116;2023-01-25T01:31:15;19.33;;;14.93;;
15488;SDS011;7846;48.830;9.116;2023-01-25T01:33:51;20.17;;;14.37;;
15488;SDS011;7846;48.830;9.116;2023-01-25T01:36:21;18.00;;;13.60;;
15488;SDS011;7846;48.830;9.116;2023-01-25T01:38:48;19.57;;;13.70;;
15488;SDS011;7846;48.830;9.116;2023-01-25T01:41:14;17.57;;;14.03;;
15488;SDS011;7846;48.830;9.116;2023-01-25T01:43:40;17.87;;;14.13;;
15488;SDS011;7846;48.830;9.116;2023-01-25T01:46:20;16.53;;;13.60;;
15488;SDS011;7846;48.830;9.116;2023-01-25T01:48:55;18.50;;;13.83;;
15488;SDS011;7846;48.830;9.116;2023-01-25T01:51:35;16.90;;;13.70;;
15488;SDS011;7846;48.830;9.116;2023-01-25T01:54:19;18.43;;;14.27;;
15488;SDS011;7846;48.830;9.116;2023-01-25T01:59:29;20.43;;;15.20;;
15488;SDS011;7846;48.830;9.116;2023-01-25T02:02:01;19.00;;;14.43;;
15488;SDS011;7846;48.830;9.116;2023-01-25T02:04:29;18.57;;;14.50;;
15488;SDS011;7846;48.830;9.116;2023-01-25T02:06:58;19.93;;;14.17;;
15488;SDS011;7846;48.830;9.116;2023-01-25T02:09:26;19.77;;;15.20;;
15488;SDS011;7846;48.830;9.116;2023-01-25T02:11:53;19.97;;;15.00;;
15488;SDS011;7846;48.830;9.116;2023-01-25T02:14:20;20.80;;;15.47;;
15488;SDS011;7846;48.830;9.116;2023-01-25T02:16:47;22.10;;;15.53;;
15488;SDS011;7846;48.830;9.116;2023-01-25T02:19:16;22.50;;;16.33;;
15488;SDS011;7846;48.830;9.116;2023-01-25T02:21:58;20.77;;;15.10;;
15488;SDS011;7846;48.830;9.116;2023-01-25T02:24:31;21.50;;;16.10;;
15488;SDS011;7846;48.830;9.116;2023-01-25T02:26:58;20.87;;;15.07;;
15488;SDS011;7846;48.830;9.116;2023-01-25T02:29:24;20.37;;;15.30;;
15488;SDS011;7846;48.830;9.116;2023-01-25T02:31:57;20.10;;;15.30;;
15488;SDS011;7846;48.830;9.116;2023-01-25T02:34:25;20.40;;;15.33;;
15488;SDS011;7846;48.830;9.116;2023-01-25T02:36:51;19.10;;;14.93;;
15488;SDS011;7846;48.830;9.116;2023-01-25T02:39:17;19.47;;;15.13;;
15488;SDS011;7846;48.830;9.116;2023-01-25T02:41:43;21.50;;;14.63;;
15488;SDS011;7846;48.830;9.116;2023-01-25T02:44:12;19.90;;;14.77;;
15488;SDS011;7846;48.830;9.116;2023-01-25T02:46:40;20.20;;;14.50;;
15488;SDS011;7846;48.830;9.116;2023-01-25T02:49:07;20.83;;;15.00;;
15488;SDS011;7846;48.830;9.116;2023-01-25T02:51:37;19.50;;;14.20;;
15488;SDS011;7846;48.830;9.116;2023-01-25T02:54:04;19.13;;;13.97;;
15488;SDS011;7846;48.830;9.116;2023-01-25T02:56:31;20.37;;;14.77;;
15488;SDS011;7846;48.830;9.116;2023-01-25T02:58:57;21.10;;;13.90;;
15488;SDS011;7846;48.830;9.116;2023-01-25T03:01:23;18.13;;;13.80;;
15488;SDS011;7846;48.830;9.116;2023-01-25T03:03:49;19.10;;;13.57;;
15488;SDS011;7846;48.830;9.116;2023-01-25T03:06:14;19.60;;;14.37;;
15488;SDS011;7846;48.830;9.116;2023-01-25T03:08:40;17.80;;;12.50;;
15488;SDS011;7846;48.830;9.116;2023-01-25T03:11:06;18.83;;;14.00;;
15488;SDS011;7846;48.830;9.116;2023-01-25T03:13:32;17.23;;;12.70;;
15488;SDS011;7846;48.830;9.116;2023-01-25T03:15:59;16.80;;;12.90;;
15488;SDS011;7846;48.830;9.116;2023-01-25T03:18:27;18.23;;;13.27;;
15488;SDS011;7846;48.830;9.116;2023-01-25T03:20:53;20.33;;;13.57;;
15488;SDS011;7846;48.830;9.116;2023-01-25T03:23:19;17.03;;;13.33;;
15488;SDS011;7846;48.830;9.116;2023-01-25T03:25:44;19.30;;;13.20;;
15488;SDS011;7846;48.830;9.116;2023-01-25T03:28:12;18.13;;;13.37;;
15488;SDS011;7846;48.830;9.116;2023-01-25T03:30:37;17.80;;;13.23;;
15488;SDS011;7846;48.830;9.116;2023-01-25T03:33:03;17.00;;;12.70;;
15488;SDS011;7846;48.830;9.116;2023-01-25T03:35:28;18.60;;;13.10;;
15488;SDS011;7846;48.830;9.116;2023-01-25T03:37:54;18.23;;;13.47;;
15488;SDS011;7846;48.830;9.116;2023-01-25T03:40:19;16.53;;;12.63;;
15488;SDS011;7846;48.830;9.116;2023-01-25T03:42:46;17.27;;;13.30;;
15488;SDS011;7846;48.830;9.116;2023-01-25T03:45:11;16.50;;;12.50;;
15488;SDS011;7846;48.830;9.116;2023-01-25T03:47:38;17.33;;;13.13;;
15488;SDS011;7846;48.830;9.116;2023-01-25T03:50:04;16.13;;;12.47;;
15488;SDS011;7846;48.830;9.116;2023-01-25T03:52:30;16.37;;;12.33;;
15488;SDS011;7846;48.830;9.116;2023-01-25T03:55:02;17.33;;;12.37;;
15488;SDS011;7846;48.830;9.116;2023-01-25T03:57:28;16.27;;;12.53;;
15488;SDS011;7846;48.830;9.116;2023-01-25T03:59:53;16.70;;;12.37;;
15488;SDS011;7846;48.830;9.116;2023-01-25T04:02:20;17.63;;;12.73;;
15488;SDS011;7846;48.830;9.116;2023-01-25T04:04:46;17.87;;;12.23;;
15488;SDS011;7846;48.830;9.116;2023-01-25T04:07:11;17.57;;;12.93;;
15488;SDS011;7846;48.830;9.116;2023-01-25T04:09:38;17.20;;;12.53;;
15488;SDS011;7846;48.830;9.116;2023-01-25T04:12:03;16.60;;;11.93;;
15488;SDS011;7846;48.830;9.116;2023-01-25T04:14:28;14.53;;;10.93;;
15488;SDS011;7846;48.830;9.116;2023-01-25T04:16:55;17.70;;;12.67;;
15488;SDS011;7846;48.830;9.116;2023-01-25T04:19:21;21.63;;;12.47;;
15488;SDS011;7846;48.830;9.116;2023-01-25T04:21:46;18.43;;;12.67;;
15488;SDS011;7846;48.830;9.116;2023-01-25T04:24:13;18.60;;;13.17;;
15488;SDS011;7846;48.830;9.116;2023-01-25T04:26:39;16.93;;;13.23;;
15488;SDS011;7846;48.830;9.116;2023-01-25T04:29:05;18.13;;;13.17;;
15488;SDS011;7846;48.830;9.116;2023-01-25T04:31:31;17.90;;;13.30;;
15488;SDS011;7846;48.830;9.116;2023-01-25T04:33:56;16.77;;;12.27;;
15488;SDS011;7846;48.830;9.116;2023-01-25T04:36:22;18.53;;;13.10;;
15488;SDS011;7846;48.830;9.116;2023-01-25T04:38:48;17.63;;;12.40;;
15488;SDS011;7846;48.830;9.116;2023-01-25T04:41:13;17.37;;;11.80;;
15488;SDS011;7846;48.830;9.116;2023-01-25T04:43:39;15.00;;;11.67;;
15488;SDS011;7846;48.830;9.116;2023-01-25T04:46:05;16.20;;;11.83;;
15488;SDS011;7846;48.830;9.116;2023-01-25T04:48:31;16.67;;;11.67;;
15488;SDS011;7846;48.830;9.116;2023-01-25T04:50:57;15.57;;;11.97;;
15488;SDS011;7846;48.830;9.116;2023-01-25T04:53:22;14.70;;;11.67;;
15488;SDS011;7846;48.830;9.116;2023-01-25T04:55:48;15.17;;;11.57;;
15488;SDS011;7846;48.830;9.116;2023-01-25T04:58:13;14.43;;;11.40;;
15488;SDS011;7846;48.830;9.116;2023-01-25T05:00:39;16.97;;;12.03;;
15488;SDS011;7846;48.830;9.116;2023-01-25T05:03:04;16.93;;;12.13;;
15488;SDS011;7846;48.830;9.116;2023-01-25T05:05:29;15.83;;;12.07;;
15488;SDS011;7846;48.830;9.116;2023-01-25T05:07:55;15.73;;;11.77;;
15488;SDS011;7846;48.830;9.116;2023-01-25T05:10:20;15.77;;;11.57;;
15488;SDS011;7846;48.830;9.116;2023-01-25T05:12:46;14.50;;;11.27;;
15488;SDS011;7846;48.830;9.116;2023-01-25T05:15:11;14.40;;;10.97;;
15488;SDS011;7846;48.830;9.116;2023-01-25T05:17:37;15.63;;;11.70;;
15488;SDS011;7846;48.830;9.116;2023-01-25T05:20:03;13.53;;;11.00;;
15488;SDS011;7846;48.830;9.116;2023-01-25T05:22:29;14.13;;;10.80;;
15488;SDS011;7846;48.830;9.116;2023-01-25T05:24:56;13.30;;;10.63;;
15488;SDS011;7846;48.830;9.116;2023-01-25T05:27:23;14.70;;;11.50;;
15488;SDS011;7846;48.830;9.116;2023-01-25T05:29:48;14.67;;;11.60;;
15488;SDS011;7846;48.830;9.116;2023-01-25T05:32:15;14.17;;;11.00;;
15488;SDS011;7846;48.830;9.116;2023-01-25T05:34:42;16.63;;;12.00;;
15488;SDS011;7846;48.830;9.116;2023-01-25T05:37:10;14.90;;;11.47;;
15488;SDS011;7846;48.830;9.116;2023-01-25T05:39:37;15.23;;;11.63;;
15488;SDS011;7846;48.830;9.116;2023-01-25T05:42:02;13.90;;;10.80;;
15488;SDS011;7846;48.830;9.116;2023-01-25T05:44:28;14.90;;;10.83;;
15488;SDS011;7846;48.830;9.116;2023-01-25T05:46:53;13.57;;;10.27;;
15488;SDS011;7846;48.830;9.116;2023-01-25T05:49:19;12.13;;;10.07;;
15488;SDS011;7846;48.830;9.116;2023-01-25T05:51:45;13.73;;;10.67;;
15488;SDS011;7846;48.830;9.116;2023-01-25T05:54:12;14.60;;;10.80;;
15488;SDS011;7846;48.830;9.116;2023-01-25T05:56:40;12.63;;;10.53;;
15488;SDS011;7846;48.830;9.116;2023-01-25T05:59:06;13.87;;;10.47;;
15488;SDS011;7846;48.830;9.116;2023-01-25T06:01:31;13.67;;;10.20;;
15488;SDS011;7846;48.830;9.116;2023-01-25T06:03:56;13.57;;;10.90;;
15488;SDS011;7846;48.830;9.116;2023-01-25T06:06:23;13.77;;;10.33;;
15488;SDS011;7846;48.830;9.116;2023-01-25T06:08:49;13.17;;;9.97;;
15488;SDS011;7846;48.830;9.116;2023-01-25T06:11:15;13.67;;;10.33;;
15488;SDS011;7846;48.830;9.116;2023-01-25T06:13:42;12.87;;;10.50;;
15488;SDS011;7846;48.830;9.116;2023-01-25T06:16:08;12.70;;;10.47;;
15488;SDS011;7846;48.830;9.116;2023-01-25T06:18:34;13.60;;;10.60;;
15488;SDS011;7846;48.830;9.116;2023-01-25T06:21:00;12.10;;;10.17;;
15488;SDS011;7846;48.830;9.116;2023-01-25T06:23:26;12.33;;;9.70;;
15488;SDS011;7846;48.830;9.116;2023-01-25T06:25:56;13.30;;;10.20;;
15488;SDS011;7846;48.830;9.116;2023-01-25T06:28:25;11.97;;;10.23;;
15488;SDS011;7846;48.830;9.116;2023-01-25T06:30:51;13.53;;;10.00;;
15488;SDS011;7846;48.830;9.116;2023-01-25T06:33:16;13.70;;;10.07;;
15488;SDS011;7846;48.830;9.116;2023-01-25T06:35:43;12.93;;;10.00;;
15488;SDS011;7846;48.830;9.116;2023-01-25T06:38:08;12.63;;;10.20;;
15488;SDS011;7846;48.830;9.116;2023-01-25T06:40:34;13.73;;;10.73;;
15488;SDS011;7846;48.830;9.116;2023-01-25T06:43:06;12.67;;;10.30;;
15488;SDS011;7846;48.830;9.116;2023-01-25T06:45:32;12.03;;;9.53;;
15488;SDS011;7846;48.830;9.116;2023-01-25T06:47:59;12.67;;;10.10;;
15488;SDS011;7846;48.830;9.116;2023-01-25T06:50:24;13.33;;;9.93;;
15488;SDS011;7846;48.830;9.116;2023-01-25T06:52:51;12.30;;;9.33;;
15488;SDS011;7846;48.830;9.116;2023-01-25T06:55:17;12.20;;;9.53;;
15488;SDS011;7846;48.830;9.116;2023-01-25T06:57:42;12.37;;;9.30;;
15488;SDS011;7846;48.830;9.116;2023-01-25T07:00:08;10.20;;;8.57;;
15488;SDS011;7846;48.830;9.116;2023-01-25T07:02:34;10.77;;;8.80;;
15488;SDS011;7846;48.830;9.116;2023-01-25T07:05:00;11.67;;;9.33;;
15488;SDS011;7846;48.830;9.116;2023-01-25T07:07:25;10.10;;;8.80;;
15488;SDS011;7846;48.830;9.116;2023-01-25T07:09:51;11.50;;;9.23;;
15488;SDS011;7846;48.830;9.116;2023-01-25T07:12:17;10.63;;;8.97;;
15488;SDS011;7846;48.830;9.116;2023-01-25T07:14:44;10.87;;;8.70;;
15488;SDS011;7846;48.830;9.116;2023-01-25T07:17:11;11.17;;;8.67;;
15488;SDS011;7846;48.830;9.116;2023-01-25T07:19:36;11.60;;;9.20;;
15488;SDS011;7846;48.830;9.116;2023-01-25T07:22:02;11.57;;;9.30;;
15488;SDS011;7846;48.830;9.116;2023-01-25T07:24:27;14.00;;;10.17;;
15488;SDS011;7846;48.830;9.116;2023-01-25T07:26:53;14.87;;;12.23;;
15488;SDS011;7846;48.830;9.116;2023-01-25T07:29:19;14.10;;;10.93;;
15488;SDS011;7846;48.830;9.116;2023-01-25T07:31:45;11.13;;;9.47;;
15488;SDS011;7846;48.830;9.116;2023-01-25T07:34:10;10.70;;;9.03;;
15488;SDS011;7846;48.830;9.116;2023-01-25T07:36:37;11.23;;;9.00;;
15488;SDS011;7846;48.830;9.116;2023-01-25T07:39:03;10.43;;;8.70;;
15488;SDS011;7846;48.830;9.116;2023-01-25T07:41:28;11.17;;;8.60;;
15488;SDS011;7846;48.830;9.116;2023-01-25T07:43:54;9.73;;;8.47;;
15488;SDS011;7846;48.830;9.116;2023-01-25T07:46:20;11.90;;;9.47;;
15488;SDS011;7846;48.830;9.116;2023-01-25T07:48:47;11.00;;;9.00;;
15488;SDS011;7846;48.830;9.116;2023-01-25T07:51:14;10.73;;;8.47;;
15488;SDS011;7846;48.830;9.116;2023-01-25T07:53:47;10.83;;;8.33;;
15488;SDS011;7846;48.830;9.116;2023-01-25T07:56:15;13.13;;;8.63;;
15488;SDS011;7846;48.830;9.116;2023-01-25T07:58:40;10.07;;;8.73;;
15488;SDS011;7846;48.830;9.116;2023-01-25T08:01:10;10.03;;;8.97;;
15488;SDS011;7846;48.830;9.116;2023-01-25T08:03:40;11.60;;;8.77;;
15488;SDS011;7846;48.830;9.116;2023-01-25T08:06:06;11.20;;;8.57;;
15488;SDS011;7846;48.830;9.116;2023-01-25T08:08:32;9.63;;;8.57;;
15488;SDS011;7846;48.830;9.116;2023-01-25T08:11:06;10.47;;;9.07;;
15488;SDS011;7846;48.830;9.116;2023-01-25T08:13:34;10.77;;;8.80;;
15488;SDS011;7846;48.830;9.116;2023-01-25T08:15:59;10.60;;;8.70;;
15488;SDS011;7846;48.830;9.116;2023-01-25T08:18:26;9.83;;;8.00;;
15488;SDS011;7846;48.830;9.116;2023-01-25T08:20:51;10.33;;;8.47;;
15488;SDS011;7846;48.830;9.116;2023-01-25T08:23:17;10.87;;;8.27;;
15488;SDS011;7846;48.830;9.116;2023-01-25T08:25:44;10.63;;;8.27;;
15488;SDS011;7846;48.830;9.116;2023-01-25T08:28:10;10.37;;;8.50;;
15488;SDS011;7846;48.830;9.116;2023-01-25T08:30:35;8.87;;;7.97;;
15488;SDS011;7846;48.830;9.116;2023-01-25T08:33:00;10.30;;;8.17;;
15488;SDS011;7846;48.830;9.116;2023-01-25T08:35:27;10.87;;;8.60;;
15488;SDS011;7846;48.830;9.116;2023-01-25T08:37:52;11.80;;;9.00;;
15488;SDS011;7846;48.830;9.116;2023-01-25T08:40:19;10.07;;;8.33;;
15488;SDS011;7846;48.830;9.116;2023-01-25T08:42:44;9.60;;;8.60;;
15488;SDS011;7846;48.830;9.116;2023-01-25T08:45:09;10.27;;;8.30;;
15488;SDS011;7846;48.830;9.116;2023-01-25T08:47:35;11.30;;;8.73;;
15488;SDS011;7846;48.830;9.116;2023-01-25T08:50:00;12.03;;;8.70;;
15488;SDS011;7846;48.830;9.116;2023-01-25T08:52:26;11.07;;;8.93;;
15488;SDS011;7846;48.830;9.116;2023-01-25T08:54:52;9.50;;;8.30;;
15488;SDS011;7846;48.830;9.116;2023-01-25T08:57:17;11.20;;;8.57;;
15488;SDS011;7846;48.830;9.116;2023-01-25T08:59:43;11.83;;;9.13;;
15488;SDS011;7846;48.830;9.116;2023-01-25T09:02:11;9.87;;;7.90;;
15488;SDS011;7846;48.830;9.116;2023-01-25T09:04:37;9.57;;;6.67;;
15488;SDS011;7846;48.830;9.116;2023-01-25T09:07:02;10.37;;;8.37;;
15488;SDS011;7846;48.830;9.116;2023-01-25T09:09:29;10.37;;;7.33;;
15488;SDS011;7846;48.830;9.116;2023-01-25T09:11:55;8.83;;;7.63;;
15488;SDS011;7846;48.830;9.116;2023-01-25T09:14:21;9.77;;;7.50;;
15488;SDS011;7846;48.830;9.116;2023-01-25T09:16:47;11.90;;;8.30;;
15488;SDS011;7846;48.830;9.116;2023-01-25T09:19:12;10.17;;;8.00;;
15488;SDS011;7846;48.830;9.116;2023-01-25T09:21:38;10.57;;;7.87;;
15488;SDS011;7846;48.830;9.116;2023-01-25T09:24:04;11.10;;;7.80;;
15488;SDS011;7846;48.830;9.116;2023-01-25T09:26:30;11.43;;;8.43;;
15488;SDS011;7846;48.830;9.116;2023-01-25T09:28:56;10.57;;;8.30;;
15488;SDS011;7846;48.830;9.116;2023-01-25T09:31:21;9.80;;;8.13;;
15488;SDS011;7846;48.830;9.116;2023-01-25T09:33:48;10.60;;;8.57;;
15488;SDS011;7846;48.830;9.116;2023-01-25T09:36:14;8.93;;;7.83;;
15488;SDS011;7846;48.830;9.116;2023-01-25T09:38:40;10.10;;;7.90;;
15488;SDS011;7846;48.830;9.116;2023-01-25T09:41:21;8.93;;;7.50;;
15488;SDS011;7846;48.830;9.116;2023-01-25T09:44:05;11.97;;;8.53;;
15488;SDS011;7846;48.830;9.116;2023-01-25T09:46:37;10.40;;;8.43;;
15488;SDS011;7846;48.830;9.116;2023-01-25T09:54:54;10.80;;;8.63;;
15488;SDS011;7846;48.830;9.116;2023-01-25T09:57:28;9.53;;;8.53;;
15488;SDS011;7846;48.830;9.116;2023-01-25T09:59:58;10.10;;;8.23;;
15488;SDS011;7846;48.830;9.116;2023-01-25T10:02:45;9.07;;;7.63;;
15488;SDS011;7846;48.830;9.116;2023-01-25T10:05:18;9.77;;;8.03;;
15488;SDS011;7846;48.830;9.116;2023-01-25T10:07:56;10.37;;;7.87;;
15488;SDS011;7846;48.830;9.116;2023-01-25T10:10:31;10.07;;;8.10;;
15488;SDS011;7846;48.830;9.116;2023-01-25T10:13:13;10.53;;;8.13;;
15488;SDS011;7846;48.830;9.116;2023-01-25T10:15:49;11.60;;;8.10;;
15488;SDS011;7846;48.830;9.116;2023-01-25T10:21:34;9.07;;;7.83;;
15488;SDS011;7846;48.830;9.116;2023-01-25T10:27:02;10.37;;;8.60;;
15488;SDS011;7846;48.830;9.116;2023-01-25T10:29:51;10.77;;;8.33;;
15488;SDS011;7846;48.830;9.116;2023-01-25T10:32:23;9.83;;;8.57;;
15488;SDS011;7846;48.830;9.116;2023-01-25T10:34:52;10.17;;;8.70;;
15488;SDS011;7846;48.830;9.116;2023-01-25T10:37:21;10.40;;;9.30;;
15488;SDS011;7846;48.830;9.116;2023-01-25T10:42:29;11.27;;;8.90;;
15488;SDS011;7846;48.830;9.116;2023-01-25T10:45:01;10.83;;;8.70;;
15488;SDS011;7846;48.830;9.116;2023-01-25T10:47:34;10.40;;;9.20;;
15488;SDS011;7846;48.830;9.116;2023-01-25T10:50:01;9.87;;;8.67;;
15488;SDS011;7846;48.830;9.116;2023-01-25T10:52:27;10.97;;;9.37;;
15488;SDS011;7846;48.830;9.116;2023-01-25T10:55:14;11.47;;;9.37;;
15488;SDS011;7846;48.830;9.116;2023-01-25T10:57:51;10.60;;;8.13;;
15488;SDS011;7846;48.830;9.116;2023-01-25T11:00:26;11.13;;;9.10;;
15488;SDS011;7846;48.830;9.116;2023-01-25T11:02:56;10.50;;;9.33;;
15488;SDS011;7846;48.830;9.116;2023-01-25T11:07:55;10.50;;;9.20;;
15488;SDS011;7846;48.830;9.116;2023-01-25T11:15:39;11.43;;;8.67;;
15488;SDS011;7846;48.830;9.116;2023-01-25T11:18:25;12.67;;;9.20;;
15488;SDS011;7846;48.830;9.116;2023-01-25T11:21:05;13.13;;;10.30;;
15488;SDS011;7846;48.830;9.116;2023-01-25T11:23:31;13.10;;;11.03;;
15488;SDS011;7846;48.830;9.116;2023-01-25T11:26:09;11.77;;;9.80;;
15488;SDS011;7846;48.830;9.116;2023-01-25T11:28:42;13.27;;;10.43;;
15488;SDS011;7846;48.830;9.116;2023-01-25T11:31:13;12.43;;;9.67;;
15488;SDS011;7846;48.830;9.116;2023-01-25T11:33:40;11.63;;;9.67;;
15488;SDS011;7846;48.830;9.116;2023-01-25T11:38:42;11.13;;;9.37;;
15488;SDS011;7846;48.830;9.116;2023-01-25T11:44:31;11.30;;;9.33;;
15488;SDS011;7846;48.830;9.116;2023-01-25T11:50:19;12.93;;;9.53;;
15488;SDS011;7846;48.830;9.116;2023-01-25T11:53:02;12.40;;;10.37;;
15488;SDS011;7846;48.830;9.116;2023-01-25T11:55:45;12.17;;;9.67;;
15488;SDS011;7846;48.830;9.116;2023-01-25T11:58:25;11.67;;;9.43;;
15488;SDS011;7846;48.830;9.116;2023-01-25T12:03:37;12.67;;;9.90;;
15488;SDS011;7846;48.830;9.116;2023-01-25T12:06:21;11.57;;;9.20;;
15488;SDS011;7846;48.830;9.116;2023-01-25T12:15:02;13.40;;;9.93;;
15488;SDS011;7846;48.830;9.116;2023-01-25T12:17:46;12.63;;;9.93;;
15488;SDS011;7846;48.830;9.116;2023-01-25T12:20:27;12.60;;;9.80;;
15488;SDS011;7846;48.830;9.116;2023-01-25T12:23:39;11.67;;;9.30;;
15488;SDS011;7846;48.830;9.116;2023-01-25T12:31:16;11.53;;;9.30;;
15488;SDS011;7846;48.830;9.116;2023-01-25T12:33:58;13.80;;;10.40;;
15488;SDS011;7846;48.830;9.116;2023-01-25T12:36:43;13.97;;;10.47;;
15488;SDS011;7846;48.830;9.116;2023-01-25T12:39:11;14.23;;;10.93;;
15488;SDS011;7846;48.830;9.116;2023-01-25T12:44:37;14.13;;;11.13;;
15488;SDS011;7846;48.830;9.116;2023-01-25T12:49:59;13.43;;;10.63;;
15488;SDS011;7846;48.830;9.116;2023-01-25T12:52:35;13.87;;;10.73;;
15488;SDS011;7846;48.830;9.116;2023-01-25T12:55:12;15.47;;;10.97;;
15488;SDS011;7846;48.830;9.116;2023-01-25T13:00:33;12.80;;;10.30;;
15488;SDS011;7846;48.830;9.116;2023-01-25T13:05:50;13.43;;;10.37;;
15488;SDS011;7846;48.830;9.116;2023-01-25T13:11:21;14.93;;;11.53;;
15488;SDS011;7846;48.830;9.116;2023-01-25T13:13:51;15.07;;;11.83;;
15488;SDS011;7846;48.830;9.116;2023-01-25T13:16:30;14.70;;;11.37;;
15488;SDS011;7846;48.830;9.116;2023-01-25T13:19:01;14.23;;;10.83;;
15488;SDS011;7846;48.830;9.116;2023-01-25T13:31:57;13.63;;;10.80;;
15488;SDS011;7846;48.830;9.116;2023-01-25T13:37:20;15.67;;;11.93;;
15488;SDS011;7846;48.830;9.116;2023-01-25T13:42:24;17.60;;;12.80;;
15488;SDS011;7846;48.830;9.116;2023-01-25T13:45:13;16.47;;;12.17;;
15488;SDS011;7846;48.830;9.116;2023-01-25T13:47:42;16.67;;;12.07;;
15488;SDS011;7846;48.830;9.116;2023-01-25T13:50:23;16.60;;;11.83;;
15488;SDS011;7846;48.830;9.116;2023-01-25T13:52:55;15.70;;;12.00;;
15488;SDS011;7846;48.830;9.116;2023-01-25T13:55:51;17.47;;;12.47;;
15488;SDS011;7846;48.830;9.116;2023-01-25T13:58:19;17.33;;;12.23;;
15488;SDS011;7846;48.830;9.116;2023-01-25T14:06:23;15.00;;;11.67;;
15488;SDS011;7846;48.830;9.116;2023-01-25T14:08:50;16.73;;;12.63;;
15488;SDS011;7846;48.830;9.116;2023-01-25T14:11:18;17.20;;;12.93;;
15488;SDS011;7846;48.830;9.116;2023-01-25T14:13:56;17.43;;;12.57;;
15488;SDS011;7846;48.830;9.116;2023-01-25T14:16:41;17.47;;;13.30;;
15488;SDS011;7846;48.830;9.116;2023-01-25T14:19:20;19.63;;;13.93;;
15488;SDS011;7846;48.830;9.116;2023-01-25T14:22:08;16.50;;;13.40;;
15488;SDS011;7846;48.830;9.116;2023-01-25T14:24:34;18.23;;;13.57;;
15488;SDS011;7846;48.830;9.116;2023-01-25T14:27:02;16.53;;;13.43;;
15488;SDS011;7846;48.830;9.116;2023-01-25T14:29:31;16.63;;;12.83;;
15488;SDS011;7846;48.830;9.116;2023-01-25T14:32:01;18.07;;;13.43;;
15488;SDS011;7846;48.830;9.116;2023-01-25T14:34:27;16.47;;;12.37;;
15488;SDS011;7846;48.830;9.116;2023-01-25T14:37:06;17.00;;;12.50;;
15488;SDS011;7846;48.830;9.116;2023-01-25T14:39:40;16.40;;;12.67;;
15488;SDS011;7846;48.830;9.116;2023-01-25T14:42:05;18.33;;;13.07;;
15488;SDS011;7846;48.830;9.116;2023-01-25T14:44:31;18.93;;;13.57;;
15488;SDS011;7846;48.830;9.116;2023-01-25T14:50:27;17.37;;;12.37;;
15488;SDS011;7846;48.830;9.116;2023-01-25T14:53:05;19.30;;;12.87;;
15488;SDS011;7846;48.830;9.116;2023-01-25T14:55:34;20.67;;;14.13;;
15488;SDS011;7846;48.830;9.116;2023-01-25T14:58:01;20.33;;;14.80;;
15488;SDS011;7846;48.830;9.116;2023-01-25T15:00:28;20.70;;;15.17;;
15488;SDS011;7846;48.830;9.116;2023-01-25T15:02:59;20.47;;;15.37;;
15488;SDS011;7846;48.830;9.116;2023-01-25T15:05:34;18.60;;;14.83;;
15488;SDS011;7846;48.830;9.116;2023-01-25T15:10:35;19.10;;;15.27;;
15488;SDS011;7846;48.830;9.116;2023-01-25T15:13:03;18.87;;;15.47;;
15488;SDS011;7846;48.830;9.116;2023-01-25T15:16:03;25.90;;;18.47;;
15488;SDS011;7846;48.830;9.116;2023-01-25T15:18:49;18.60;;;14.30;;
15488;SDS011;7846;48.830;9.116;2023-01-25T15:23:55;19.20;;;14.03;;
15488;SDS011;7846;48.830;9.116;2023-01-25T15:26:26;19.57;;;15.00;;
15488;SDS011;7846;48.830;9.116;2023-01-25T15:28:53;24.93;;;15.37;;
15488;SDS011;7846;48.830;9.116;2023-01-25T15:31:22;21.87;;;15.80;;
15488;SDS011;7846;48.830;9.116;2023-01-25T15:33:50;20.67;;;15.97;;
15488;SDS011;7846;48.830;9.116;2023-01-25T15:36:16;21.30;;;15.87;;
15488;SDS011;7846;48.830;9.116;2023-01-25T15:38:42;20.73;;;15.73;;
15488;SDS011;7846;48.830;9.116;2023-01-25T15:41:08;20.23;;;14.40;;
15488;SDS011;7846;48.830;9.116;2023-01-25T15:43:35;21.10;;;14.37;;
15488;SDS011;7846;48.830;9.116;2023-01-25T15:46:00;19.70;;;14.60;;
15488;SDS011;7846;48.830;9.116;2023-01-25T15:48:30;19.83;;;14.93;;
15488;SDS011;7846;48.830;9.116;2023-01-25T15:50:58;18.90;;;15.03;;
15488;SDS011;7846;48.830;9.116;2023-01-25T15:53:24;24.67;;;15.77;;
15488;SDS011;7846;48.830;9.116;2023-01-25T15:55:51;18.83;;;14.90;;
15488;SDS011;7846;48.830;9.116;2023-01-25T15:58:37;21.50;;;16.60;;
15488;SDS011;7846;48.830;9.116;2023-01-25T16:01:04;19.33;;;14.83;;
15488;SDS011;7846;48.830;9.116;2023-01-25T16:03:29;19.97;;;15.50;;
15488;SDS011;7846;48.830;9.116;2023-01-25T16:06:00;22.10;;;16.63;;
15488;SDS011;7846;48.830;9.116;2023-01-25T16:08:45;19.97;;;15.80;;
15488;SDS011;7846;48.830;9.116;2023-01-25T16:11:12;21.03;;;16.70;;
15488;SDS011;7846;48.830;9.116;2023-01-25T16:13:37;21.67;;;16.63;;
15488;SDS011;7846;48.830;9.116;2023-01-25T16:16:07;22.80;;;16.33;;
15488;SDS011;7846;48.830;9.116;2023-01-25T16:18:41;21.60;;;16.33;;
15488;SDS011;7846;48.830;9.116;2023-01-25T16:21:08;22.93;;;16.73;;
15488;SDS011;7846;48.830;9.116;2023-01-25T16:23:36;22.70;;;16.40;;
15488;SDS011;7846;48.830;9.116;2023-01-25T16:26:05;22.93;;;17.07;;